createdAt,value
2022-09-28T00:00:23.125Z,86.62
2022-09-28T00:01:45.006Z,86.40
2022-09-28T00:02:47.639Z,86.12
2022-09-28T00:03:51.520Z,86.16
2022-09-28T00:04:53.505Z,85.86
2022-09-28T00:06:01.595Z,85.74
2022-09-28T00:07:03.306Z,85.77
2022-09-28T00:08:04.960Z,85.74
2022-09-28T00:09:07.033Z,85.72
2022-09-28T00:10:09.093Z,85.75
2022-09-28T00:11:14.566Z,85.65
2022-09-28T00:12:16.191Z,85.74
2022-09-28T00:13:17.959Z,85.85
2022-09-28T00:14:20.457Z,85.91
2022-09-28T00:15:24.048Z,85.97
2022-09-28T00:16:28.907Z,85.97
2022-09-28T00:17:30.967Z,85.86
2022-09-28T00:18:33.309Z,85.84
2022-09-28T00:19:34.973Z,85.79
2022-09-28T00:20:37.090Z,85.85
2022-09-28T00:21:40.452Z,85.78
2022-09-28T00:22:42.291Z,85.86
2022-09-28T00:24:03.561Z,85.80
2022-09-28T00:25:06.711Z,85.84
2022-09-28T00:26:08.344Z,85.86
2022-09-28T00:27:10.031Z,85.85
2022-09-28T00:28:11.685Z,85.94
2022-09-28T00:29:32.978Z,86.06
2022-09-28T00:30:34.839Z,85.79
2022-09-28T00:31:36.868Z,85.85
2022-09-28T00:32:38.833Z,85.86
2022-09-28T00:33:40.487Z,86.25
2022-09-28T00:34:48.024Z,86.14
2022-09-28T00:35:57.617Z,86.02
2022-09-28T00:37:00.703Z,86.10
2022-09-28T00:38:03.195Z,86.24
2022-09-28T00:39:07.536Z,86.14
2022-09-28T00:40:09.398Z,86.17
2022-09-28T00:41:11.453Z,85.98
2022-09-28T00:42:14.981Z,85.94
2022-09-28T00:43:18.764Z,85.93
2022-09-28T00:44:26.519Z,85.93
2022-09-28T00:45:30.080Z,85.99
2022-09-28T00:46:34.611Z,86.05
2022-09-28T00:47:51.760Z,85.92
2022-09-28T00:49:17.079Z,86.07
2022-09-28T00:50:29.138Z,85.98
2022-09-28T00:51:31.900Z,86.02
2022-09-28T00:52:35.799Z,86.09
2022-09-28T00:53:42.242Z,86.38
2022-09-28T00:54:46.921Z,86.33
2022-09-28T00:55:54.058Z,86.41
2022-09-28T00:56:57.155Z,86.30
2022-09-28T00:58:03.101Z,86.25
2022-09-28T00:59:08.026Z,86.39
2022-09-28T01:00:10.652Z,86.48
2022-09-28T01:01:12.917Z,86.48
2022-09-28T01:02:15.046Z,86.26
2022-09-28T01:03:16.951Z,86.31
2022-09-28T01:04:18.777Z,86.13
2022-09-28T01:05:22.295Z,86.15
2022-09-28T01:06:30.358Z,86.18
2022-09-28T01:07:33.984Z,86.23
2022-09-28T01:08:36.619Z,86.25
2022-09-28T01:09:39.988Z,86.22
2022-09-28T01:10:44.852Z,86.17
2022-09-28T01:11:47.111Z,86.24
2022-09-28T01:12:48.914Z,86.16
2022-09-28T01:13:54.184Z,86.31
2022-09-28T01:14:57.866Z,86.09
2022-09-28T01:16:07.406Z,86.43
2022-09-28T01:17:20.232Z,86.56
2022-09-28T01:18:44.914Z,86.39
2022-09-28T01:20:05.895Z,86.51
2022-09-28T01:21:18.632Z,86.46
2022-09-28T01:22:45.196Z,86.72
2022-09-28T01:23:59.596Z,86.69
2022-09-28T01:25:11.551Z,86.72
2022-09-28T01:26:13.095Z,86.69
2022-09-28T01:27:48.758Z,86.93
2022-09-28T01:29:03.952Z,86.99
2022-09-28T01:30:11.359Z,86.98
2022-09-28T01:32:51.756Z,87.13
2022-09-28T01:34:17.594Z,87.20
2022-09-28T01:35:19.128Z,87.18
2022-09-28T01:36:26.799Z,87.20
2022-09-28T01:37:44.218Z,87.20
2022-09-28T01:38:51.496Z,87.15
2022-09-28T01:39:56.620Z,87.28
2022-09-28T01:41:00.062Z,87.35
2022-09-28T01:42:11.299Z,87.24
2022-09-28T01:43:42.293Z,87.18
2022-09-28T01:44:46.898Z,87.34
2022-09-28T01:45:54.071Z,87.21
2022-09-28T01:47:02.952Z,87.39
2022-09-28T01:48:07.296Z,87.34
2022-09-28T01:49:26.377Z,87.57
2022-09-28T01:50:33.520Z,87.41
2022-09-28T01:51:41.172Z,87.43
2022-09-28T01:53:00.848Z,87.56
2022-09-28T01:54:31.809Z,87.70
2022-09-28T01:55:41.588Z,87.73
2022-09-28T01:56:53.623Z,87.80
2022-09-28T01:58:12.849Z,87.67
2022-09-28T01:59:23.928Z,87.87
2022-09-28T02:00:27.079Z,88.03
2022-09-28T02:01:47.227Z,88.02
2022-09-28T02:03:19.081Z,88.18
2022-09-28T02:04:36.507Z,88.24
2022-09-28T02:05:41.971Z,88.55
2022-09-28T02:07:12.211Z,88.46
2022-09-28T02:08:28.405Z,88.66
2022-09-28T02:09:57.817Z,88.70
2022-09-28T02:11:12.699Z,88.68
2022-09-28T02:12:22.545Z,89.02
2022-09-28T02:13:31.113Z,88.94
2022-09-28T02:14:36.833Z,88.83
2022-09-28T02:15:53.279Z,89.07
2022-09-28T02:16:56.791Z,89.31
2022-09-28T02:18:04.617Z,89.40
2022-09-28T02:19:11.413Z,89.57
2022-09-28T02:20:14.865Z,89.60
2022-09-28T02:21:31.102Z,89.50
2022-09-28T02:22:47.246Z,89.70
2022-09-28T02:23:56.839Z,89.75
2022-09-28T02:25:07.191Z,89.95
2022-09-28T02:26:13.646Z,89.75
2022-09-28T02:27:26.278Z,89.60
2022-09-28T02:28:27.963Z,89.72
2022-09-28T02:29:29.699Z,89.62
2022-09-28T02:30:35.123Z,89.60
2022-09-28T02:31:36.958Z,89.73
2022-09-28T02:32:43.442Z,89.47
2022-09-28T02:33:46.751Z,89.51
2022-09-28T02:34:48.475Z,89.61
2022-09-28T02:35:50.766Z,89.44
2022-09-28T02:36:53.570Z,89.63
2022-09-28T02:37:55.960Z,89.69
2022-09-28T02:38:58.244Z,89.73
2022-09-28T02:40:00.156Z,89.60
2022-09-28T02:41:39.966Z,89.71
2022-09-28T02:43:05.760Z,89.73
2022-09-28T02:44:38.314Z,89.74
2022-09-28T02:45:46.098Z,89.87
2022-09-28T02:47:09.530Z,89.90
2022-09-28T02:49:04.934Z,89.88
2022-09-28T02:50:34.886Z,90.15
2022-09-28T02:52:09.924Z,90.06
2022-09-28T02:53:23.571Z,90.14
2022-09-28T02:54:46.933Z,90.25
2022-09-28T02:56:06.231Z,90.47
2022-09-28T02:57:45.622Z,90.42
2022-09-28T02:59:12.688Z,90.39
2022-09-28T03:00:19.281Z,90.50
2022-09-28T03:01:40.656Z,90.58
2022-09-28T03:02:47.877Z,90.80
2022-09-28T03:04:27.550Z,90.74
2022-09-28T03:05:48.511Z,91.29
2022-09-28T03:07:09.494Z,91.20
2022-09-28T03:08:15.548Z,91.40
2022-09-28T03:09:23.627Z,91.41
2022-09-28T03:10:36.653Z,91.45
2022-09-28T03:11:48.162Z,91.54
2022-09-28T03:12:53.091Z,91.47
2022-09-28T03:13:55.587Z,91.76
2022-09-28T03:15:13.910Z,91.80
2022-09-28T03:16:18.848Z,91.74
2022-09-28T03:17:22.464Z,92.03
2022-09-28T03:18:24.100Z,91.78
2022-09-28T03:19:31.095Z,91.79
2022-09-28T03:20:34.619Z,91.94
2022-09-28T03:21:36.299Z,91.90
2022-09-28T03:22:38.392Z,91.80
2022-09-28T03:23:40.715Z,91.82
2022-09-28T03:24:42.471Z,91.88
2022-09-28T03:25:44.190Z,91.94
2022-09-28T03:26:45.889Z,91.88
2022-09-28T03:27:47.784Z,91.90
2022-09-28T03:28:49.744Z,91.77
2022-09-28T03:29:56.020Z,91.94
2022-09-28T03:30:58.056Z,92.01
2022-09-28T03:32:00.758Z,92.12
2022-09-28T03:33:02.514Z,92.09
2022-09-28T03:34:05.860Z,92.07
2022-09-28T03:35:08.794Z,91.98
2022-09-28T03:36:10.824Z,92.13
2022-09-28T03:37:14.835Z,92.23
2022-09-28T03:38:19.916Z,92.22
2022-09-28T03:39:21.546Z,92.14
2022-09-28T03:40:23.806Z,92.36
2022-09-28T03:41:28.993Z,92.44
2022-09-28T03:42:30.932Z,92.56
2022-09-28T03:43:32.727Z,92.62
2022-09-28T03:44:34.838Z,92.67
2022-09-28T03:45:36.600Z,92.89
2022-09-28T03:46:38.296Z,92.60
2022-09-28T03:47:46.104Z,92.78
2022-09-28T03:48:47.845Z,92.85
2022-09-28T03:49:49.572Z,92.93
2022-09-28T03:50:55.712Z,92.85
2022-09-28T03:51:58.435Z,93.21
2022-09-28T03:53:03.580Z,92.96
2022-09-28T03:54:05.586Z,93.21
2022-09-28T03:55:07.767Z,93.21
2022-09-28T03:56:14.756Z,93.28
2022-09-28T03:57:17.138Z,93.32
2022-09-28T03:58:20.525Z,93.43
2022-09-28T03:59:22.264Z,93.57
2022-09-28T04:00:24.188Z,93.73
2022-09-28T04:01:26.345Z,93.72
2022-09-28T04:02:28.310Z,93.47
2022-09-28T04:03:30.956Z,93.76
2022-09-28T04:04:32.903Z,93.64
2022-09-28T04:05:34.719Z,93.69
2022-09-28T04:06:36.484Z,93.69
2022-09-28T04:07:39.901Z,93.72
2022-09-28T04:08:42.652Z,93.92
2022-09-28T04:09:44.364Z,94.00
2022-09-28T04:10:46.741Z,94.26
2022-09-28T04:12:03.328Z,94.17
2022-09-28T04:13:06.135Z,94.42
2022-09-28T04:14:08.307Z,94.29
2022-09-28T04:15:10.705Z,94.29
2022-09-28T04:16:12.469Z,94.15
2022-09-28T04:17:17.535Z,94.35
2022-09-28T04:18:19.791Z,94.32
2022-09-28T04:19:39.825Z,94.41
2022-09-28T04:21:15.653Z,94.48
2022-09-28T04:22:24.123Z,94.73
2022-09-28T04:23:27.476Z,94.60
2022-09-28T04:24:29.322Z,94.58
2022-09-28T04:25:31.352Z,94.57
2022-09-28T04:26:33.062Z,94.73
2022-09-28T04:27:53.292Z,94.66
2022-09-28T04:29:13.772Z,94.87
2022-09-28T04:30:17.453Z,94.94
2022-09-28T04:31:22.201Z,94.97
2022-09-28T04:32:24.201Z,94.92
2022-09-28T04:33:26.158Z,94.71
2022-09-28T04:34:31.891Z,94.90
2022-09-28T04:35:36.368Z,94.89
2022-09-28T04:36:38.278Z,95.03
2022-09-28T04:37:40.136Z,94.98
2022-09-28T04:38:52.787Z,95.03
2022-09-28T04:39:56.690Z,94.92
2022-09-28T04:40:58.447Z,94.97
2022-09-28T04:42:00.526Z,94.82
2022-09-28T04:43:02.939Z,95.28
2022-09-28T04:44:04.718Z,95.34
2022-09-28T04:45:07.208Z,95.17
2022-09-28T04:46:12.880Z,95.40
2022-09-28T04:47:21.619Z,95.41
2022-09-28T04:48:49.246Z,95.39
2022-09-28T04:50:06.798Z,95.31
2022-09-28T04:51:11.009Z,95.55
2022-09-28T04:52:18.071Z,95.64
2022-09-28T04:53:23.437Z,95.65
2022-09-28T04:54:25.154Z,96.07
2022-09-28T04:55:31.644Z,96.17
2022-09-28T04:56:34.725Z,96.14
2022-09-28T04:57:36.427Z,96.09
2022-09-28T04:58:38.935Z,95.87
2022-09-28T04:59:40.890Z,96.26
2022-09-28T05:00:42.630Z,96.01
2022-09-28T05:01:55.469Z,96.08
2022-09-28T05:03:15.617Z,96.37
2022-09-28T05:04:37.197Z,96.52
2022-09-28T05:05:48.340Z,96.63
2022-09-28T05:07:11.794Z,96.83
2022-09-28T05:08:13.615Z,96.74
2022-09-28T05:09:16.067Z,96.80
2022-09-28T05:10:19.276Z,96.70
2022-09-28T05:11:22.177Z,96.77
2022-09-28T05:12:24.022Z,97.03
2022-09-28T05:13:25.816Z,96.91
2022-09-28T05:14:27.551Z,97.02
2022-09-28T05:15:30.375Z,97.23
2022-09-28T05:16:33.230Z,97.20
2022-09-28T05:18:05.003Z,97.02
2022-09-28T05:19:21.357Z,97.35
2022-09-28T05:20:24.004Z,97.32
2022-09-28T05:21:27.319Z,96.97
2022-09-28T05:22:29.080Z,96.96
2022-09-28T05:23:30.969Z,97.48
2022-09-28T05:24:34.301Z,97.21
2022-09-28T05:25:36.078Z,97.47
2022-09-28T05:26:44.451Z,97.40
2022-09-28T05:27:46.122Z,97.32
2022-09-28T05:29:04.361Z,97.25
2022-09-28T05:30:15.225Z,97.36
2022-09-28T05:31:31.774Z,97.37
2022-09-28T05:32:43.976Z,97.34
2022-09-28T05:34:06.447Z,97.59
2022-09-28T05:35:10.410Z,97.50
2022-09-28T05:36:16.181Z,97.63
2022-09-28T05:37:18.018Z,97.41
2022-09-28T05:38:20.248Z,97.52
2022-09-28T05:39:22.236Z,97.62
2022-09-28T05:40:24.072Z,97.64
2022-09-28T05:41:25.907Z,97.86
2022-09-28T05:42:27.653Z,97.66
2022-09-28T05:43:29.523Z,97.76
2022-09-28T05:44:31.329Z,97.83
2022-09-28T05:45:33.371Z,97.91
2022-09-28T05:46:35.219Z,97.47
2022-09-28T05:47:40.346Z,97.54
2022-09-28T05:48:42.548Z,97.52
2022-09-28T05:49:44.594Z,97.57
2022-09-28T05:50:51.650Z,97.57
2022-09-28T05:51:53.303Z,97.50
2022-09-28T05:53:04.297Z,97.47
2022-09-28T05:54:06.501Z,97.43
2022-09-28T05:55:12.746Z,97.68
2022-09-28T05:56:16.694Z,97.36
2022-09-28T05:57:19.567Z,97.39
2022-09-28T05:58:21.235Z,97.39
2022-09-28T05:59:22.931Z,97.80
2022-09-28T06:00:26.542Z,97.72
2022-09-28T06:01:28.529Z,97.73
2022-09-28T06:02:32.239Z,97.77
2022-09-28T06:03:34.274Z,97.81
2022-09-28T06:04:36.140Z,97.46
2022-09-28T06:05:41.326Z,97.74
2022-09-28T06:06:43.098Z,97.69
2022-09-28T06:07:45.155Z,97.68
2022-09-28T06:08:47.783Z,97.67
2022-09-28T06:10:18.597Z,97.79
2022-09-28T06:11:20.551Z,98.00
2022-09-28T06:12:22.356Z,98.06
2022-09-28T06:13:29.088Z,98.17
2022-09-28T06:14:30.755Z,98.15
2022-09-28T06:15:34.130Z,97.89
2022-09-28T06:16:41.630Z,99.15
2022-09-28T06:17:45.701Z,99.64
2022-09-28T06:19:11.169Z,99.70
2022-09-28T06:20:42.444Z,99.75
2022-09-28T06:21:48.989Z,99.88
2022-09-28T06:22:52.555Z,99.55
2022-09-28T06:23:54.384Z,99.29
2022-09-28T06:24:56.125Z,98.88
2022-09-28T06:25:59.989Z,99.17
2022-09-28T06:27:02.655Z,98.98
2022-09-28T06:28:13.142Z,98.82
2022-09-28T06:29:19.594Z,99.10
2022-09-28T06:30:23.535Z,99.15
2022-09-28T06:31:25.846Z,99.15
2022-09-28T06:32:29.285Z,98.76
2022-09-28T06:33:31.377Z,98.64
2022-09-28T06:34:34.243Z,98.83
2022-09-28T06:35:35.992Z,98.89
2022-09-28T06:36:38.349Z,98.99
2022-09-28T06:37:44.215Z,98.76
2022-09-28T06:38:46.595Z,98.68
2022-09-28T06:39:49.329Z,98.80
2022-09-28T06:40:51.130Z,98.66
2022-09-28T06:41:52.873Z,98.46
2022-09-28T06:43:00.552Z,98.49
2022-09-28T06:44:20.877Z,98.41
2022-09-28T06:45:42.677Z,98.39
2022-09-28T06:47:04.808Z,98.52
2022-09-28T06:48:32.852Z,98.50
2022-09-28T06:49:34.924Z,98.78
2022-09-28T06:50:45.757Z,98.58
2022-09-28T06:52:07.819Z,98.49
2022-09-28T06:53:28.793Z,98.50
2022-09-28T06:55:06.238Z,98.34
2022-09-28T06:56:20.415Z,98.44
2022-09-28T06:57:22.183Z,98.41
2022-09-28T06:58:27.536Z,98.65
2022-09-28T06:59:31.806Z,98.94
2022-09-28T07:00:37.190Z,98.79
2022-09-28T07:01:39.049Z,98.59
2022-09-28T07:02:54.158Z,98.57
2022-09-28T07:04:13.407Z,98.28
2022-09-28T07:05:36.258Z,98.90
2022-09-28T07:06:59.058Z,98.57
2022-09-28T07:08:21.412Z,98.75
2022-09-28T07:09:42.713Z,98.69
2022-09-28T07:10:55.751Z,98.81
2022-09-28T07:12:09.496Z,98.55
2022-09-28T07:13:49.126Z,98.29
2022-09-28T07:14:56.555Z,98.42
2022-09-28T07:16:01.179Z,98.46
2022-09-28T07:17:14.088Z,98.39
2022-09-28T07:18:18.028Z,98.57
2022-09-28T07:19:19.665Z,98.72
2022-09-28T07:20:21.328Z,98.34
2022-09-28T07:21:29.588Z,98.84
2022-09-28T07:22:41.894Z,99.03
2022-09-28T07:23:53.439Z,99.00
2022-09-28T07:24:58.338Z,99.23
2022-09-28T07:26:24.309Z,99.09
2022-09-28T07:27:36.612Z,98.85
2022-09-28T07:28:57.095Z,98.79
2022-09-28T07:30:08.972Z,99.01
2022-09-28T07:31:29.373Z,99.34
2022-09-28T07:32:47.774Z,99.39
2022-09-28T07:33:55.825Z,99.43
2022-09-28T07:35:09.033Z,99.41
2022-09-28T07:36:22.107Z,99.18
2022-09-28T07:37:25.927Z,99.33
2022-09-28T07:38:28.648Z,99.32
2022-09-28T07:39:31.327Z,99.31
2022-09-28T07:40:53.386Z,99.56
2022-09-28T07:41:59.688Z,99.66
2022-09-28T07:43:05.419Z,99.51
2022-09-28T07:44:07.173Z,99.73
2022-09-28T07:45:10.758Z,99.70
2022-09-28T07:46:12.749Z,99.67
2022-09-28T07:47:28.597Z,99.65
2022-09-28T07:49:08.311Z,99.62
2022-09-28T07:50:31.785Z,99.96
2022-09-28T07:52:02.395Z,99.82
2022-09-28T07:53:04.046Z,99.96
2022-09-28T07:54:17.170Z,99.72
2022-09-28T07:55:52.255Z,99.98
2022-09-28T07:57:08.334Z,99.95
2022-09-28T07:58:24.550Z,99.99
2022-09-28T07:59:53.735Z,99.96
2022-09-28T08:01:18.306Z,100.00
2022-09-28T08:02:21.516Z,100.00
2022-09-28T08:03:23.231Z,100.00
2022-09-28T08:04:25.236Z,100.00
2022-09-28T08:05:31.522Z,100.00
2022-09-28T08:06:34.110Z,100.00
2022-09-28T08:07:37.755Z,100.00
2022-09-28T08:08:43.974Z,100.00
2022-09-28T08:09:47.800Z,100.00
2022-09-28T08:11:16.026Z,100.00
2022-09-28T08:12:40.178Z,100.00
2022-09-28T08:14:02.242Z,100.00
2022-09-28T08:15:26.866Z,100.00
2022-09-28T08:17:49.653Z,100.00
2022-09-28T08:18:54.835Z,100.00
2022-09-28T08:20:15.250Z,100.00
2022-09-28T08:21:35.490Z,100.00
2022-09-28T08:22:37.998Z,100.00
2022-09-28T08:23:40.423Z,100.00
2022-09-28T08:24:42.228Z,100.00
2022-09-28T08:25:48.462Z,100.00
2022-09-28T08:26:50.180Z,100.00
2022-09-28T08:27:55.550Z,100.00
2022-09-28T08:28:58.236Z,100.00
2022-09-28T08:30:15.649Z,100.00
2022-09-28T08:31:30.598Z,100.00
2022-09-28T08:32:51.305Z,100.00
2022-09-28T08:34:13.685Z,100.00
2022-09-28T08:35:33.748Z,100.00
2022-09-28T08:37:03.364Z,100.00
2022-09-28T08:38:30.186Z,100.00
2022-09-28T08:39:37.885Z,100.00
2022-09-28T08:41:17.688Z,100.00
2022-09-28T08:42:41.407Z,100.00
2022-09-28T08:44:16.262Z,100.00
2022-09-28T08:45:36.919Z,100.00
2022-09-28T08:47:04.901Z,100.00
2022-09-28T08:48:45.680Z,100.00
2022-09-28T08:50:18.179Z,100.00
2022-09-28T08:51:52.956Z,100.00
2022-09-28T08:53:30.811Z,100.00
2022-09-28T08:54:53.949Z,100.00
2022-09-28T08:56:31.162Z,100.00
2022-09-28T08:57:37.553Z,100.00
2022-09-28T08:58:42.646Z,100.00
2022-09-28T08:59:59.140Z,100.00
2022-09-28T09:01:11.048Z,100.00
2022-09-28T09:02:36.129Z,100.00
2022-09-28T09:04:06.400Z,100.00
2022-09-28T09:05:15.514Z,100.00
2022-09-28T09:06:54.337Z,100.00
2022-09-28T09:08:45.218Z,100.00
2022-09-28T09:10:11.177Z,100.00
2022-09-28T09:11:27.682Z,100.00
2022-09-28T09:12:47.581Z,100.00
2022-09-28T09:14:16.171Z,100.00
2022-09-28T09:15:48.171Z,100.00
2022-09-28T09:17:17.810Z,99.88
2022-09-28T09:19:03.975Z,99.65
2022-09-28T09:20:52.889Z,99.49
2022-09-28T09:22:20.507Z,99.69
2022-09-28T09:23:28.641Z,99.53
2022-09-28T09:24:47.967Z,99.36
2022-09-28T09:25:54.379Z,99.54
2022-09-28T09:27:30.584Z,99.69
2022-09-28T09:28:42.993Z,99.38
2022-09-28T09:29:57.820Z,99.11
2022-09-28T09:31:26.514Z,99.15
2022-09-28T09:32:52.672Z,99.06
2022-09-28T09:34:31.660Z,99.21
2022-09-28T09:36:08.847Z,99.50
2022-09-28T09:37:47.607Z,99.26
2022-09-28T09:39:42.886Z,98.86
2022-09-28T09:41:50.175Z,99.37
2022-09-28T09:43:26.773Z,98.79
2022-09-28T09:45:13.926Z,98.80
2022-09-28T09:46:37.370Z,98.82
2022-09-28T09:48:33.286Z,99.21
2022-09-28T09:49:38.630Z,98.53
2022-09-28T09:50:48.966Z,98.78
2022-09-28T09:52:01.485Z,99.09
2022-09-28T09:53:18.997Z,99.08
2022-09-28T09:54:27.619Z,99.32
2022-09-28T09:55:41.245Z,99.55
2022-09-28T09:57:22.143Z,99.68
2022-09-28T09:58:40.732Z,100.00
2022-09-28T09:59:58.257Z,99.84
2022-09-28T10:01:21.459Z,99.66
2022-09-28T10:02:44.464Z,99.44
2022-09-28T10:03:55.885Z,99.53
2022-09-28T10:05:12.974Z,99.51
2022-09-28T10:06:19.740Z,98.91
2022-09-28T10:07:25.166Z,98.79
2022-09-28T10:08:27.729Z,98.77
2022-09-28T10:09:38.913Z,99.02
2022-09-28T10:11:12.118Z,99.17
2022-09-28T10:12:19.057Z,98.77
2022-09-28T10:13:20.807Z,98.70
2022-09-28T10:14:24.251Z,98.44
2022-09-28T10:15:47.431Z,98.29
2022-09-28T10:16:57.462Z,98.28
2022-09-28T10:18:20.699Z,98.27
2022-09-28T10:19:45.690Z,97.82
2022-09-28T10:21:20.944Z,98.62
2022-09-28T10:22:30.896Z,98.16
2022-09-28T10:23:36.494Z,98.28
2022-09-28T10:24:50.606Z,97.62
2022-09-28T10:25:58.811Z,97.32
2022-09-28T10:27:08.015Z,97.75
2022-09-28T10:28:19.895Z,97.43
2022-09-28T10:29:25.299Z,97.55
2022-09-28T10:30:27.830Z,97.51
2022-09-28T10:31:42.749Z,97.02
2022-09-28T10:33:01.822Z,96.79
2022-09-28T10:34:10.006Z,96.80
2022-09-28T10:35:17.926Z,97.03
2022-09-28T10:36:20.589Z,97.16
2022-09-28T10:37:23.664Z,97.35
2022-09-28T10:38:47.264Z,96.93
2022-09-28T10:39:59.824Z,96.62
2022-09-28T10:41:12.758Z,96.38
2022-09-28T10:42:33.110Z,95.88
2022-09-28T10:44:05.354Z,95.49
2022-09-28T10:45:22.794Z,95.72
2022-09-28T10:46:24.848Z,96.11
2022-09-28T10:47:32.013Z,95.69
2022-09-28T10:48:48.293Z,95.31
2022-09-28T10:49:53.123Z,94.80
2022-09-28T10:50:59.439Z,94.95
2022-09-28T10:52:01.101Z,94.61
2022-09-28T10:53:18.915Z,93.64
2022-09-28T10:54:53.564Z,93.85
2022-09-28T10:56:02.129Z,94.27
2022-09-28T10:57:26.433Z,94.15
2022-09-28T10:58:41.473Z,93.59
2022-09-28T10:59:46.497Z,94.02
2022-09-28T11:01:18.742Z,93.73
2022-09-28T11:02:26.544Z,93.37
2022-09-28T11:03:32.419Z,92.58
2022-09-28T11:04:42.154Z,91.93
2022-09-28T11:06:06.765Z,92.20
2022-09-28T11:07:24.123Z,92.13
2022-09-28T11:08:37.581Z,92.41
2022-09-28T11:09:43.150Z,92.53
2022-09-28T11:10:46.690Z,91.75
2022-09-28T11:11:49.399Z,91.82
2022-09-28T11:12:52.801Z,92.16
2022-09-28T11:14:00.602Z,92.34
2022-09-28T11:15:07.016Z,91.71
2022-09-28T11:16:31.367Z,91.56
2022-09-28T11:17:39.877Z,91.75
2022-09-28T11:18:41.863Z,91.62
2022-09-28T11:19:45.254Z,91.40
2022-09-28T11:20:48.840Z,91.43
2022-09-28T11:21:51.624Z,90.91
2022-09-28T11:22:59.829Z,90.73
2022-09-28T11:24:19.355Z,90.96
2022-09-28T11:25:24.656Z,91.42
2022-09-28T11:26:33.999Z,91.28
2022-09-28T11:27:35.830Z,91.37
2022-09-28T11:28:40.588Z,91.54
2022-09-28T11:29:58.202Z,91.66
2022-09-28T11:31:14.303Z,91.08
2022-09-28T11:32:38.869Z,91.13
2022-09-28T11:34:36.416Z,90.78
2022-09-28T11:36:12.976Z,90.81
2022-09-28T11:37:27.096Z,90.88
2022-09-28T11:38:46.882Z,90.56
2022-09-28T11:40:22.942Z,90.32
2022-09-28T11:41:43.186Z,89.61
2022-09-28T11:43:20.527Z,89.38
2022-09-28T11:44:45.779Z,89.45
2022-09-28T11:46:03.054Z,89.33
2022-09-28T11:47:22.686Z,89.59
2022-09-28T11:48:36.598Z,89.52
2022-09-28T11:49:47.415Z,89.38
2022-09-28T11:50:59.190Z,89.28
2022-09-28T11:52:09.754Z,88.77
2022-09-28T11:53:17.272Z,89.21
2022-09-28T11:54:46.754Z,88.83
2022-09-28T11:56:08.558Z,88.66
2022-09-28T11:57:20.479Z,88.11
2022-09-28T11:58:30.191Z,88.02
2022-09-28T11:59:38.082Z,87.88
2022-09-28T12:00:49.074Z,87.55
2022-09-28T12:01:57.792Z,84.67
2022-09-28T12:03:24.373Z,83.99
2022-09-28T12:04:31.828Z,83.58
2022-09-28T12:05:40.033Z,83.97
2022-09-28T12:07:23.073Z,82.42
2022-09-28T12:08:36.697Z,81.85
2022-09-28T12:10:03.092Z,81.47
2022-09-28T12:11:12.263Z,82.55
2022-09-28T12:12:52.861Z,82.95
2022-09-28T12:13:57.720Z,81.51
2022-09-28T12:15:11.163Z,81.97
2022-09-28T12:16:53.027Z,81.87
2022-09-28T12:18:05.699Z,80.94
2022-09-28T12:19:19.978Z,81.37
2022-09-28T12:20:26.531Z,80.11
2022-09-28T12:21:44.210Z,81.08
2022-09-28T12:23:00.921Z,80.00
2022-09-28T12:24:09.940Z,79.51
2022-09-28T12:25:18.845Z,78.98
2022-09-28T12:26:37.232Z,79.50
2022-09-28T12:27:52.358Z,79.57
2022-09-28T12:28:59.868Z,79.50
2022-09-28T12:30:11.195Z,78.49
2022-09-28T12:31:56.557Z,79.22
2022-09-28T12:33:04.023Z,79.13
2022-09-28T12:34:08.749Z,78.81
2022-09-28T12:35:28.817Z,79.42
2022-09-28T12:36:45.123Z,78.70
2022-09-28T12:38:08.575Z,77.91
2022-09-28T12:39:46.691Z,77.72
2022-09-28T12:40:35.328Z,75.21
2022-09-28T12:41:50.054Z,75.44
2022-09-28T12:43:07.500Z,74.20
2022-09-28T12:44:24.162Z,74.71
2022-09-28T12:46:18.231Z,74.81
2022-09-28T12:47:53.552Z,72.53
2022-09-28T12:50:56.690Z,70.82
2022-09-28T12:52:34.391Z,70.86
2022-09-28T12:54:02.217Z,70.47
2022-09-28T12:55:19.071Z,68.47
2022-09-28T12:56:26.569Z,68.70
2022-09-28T12:57:49.375Z,68.35
2022-09-28T12:59:00.055Z,67.76
2022-09-28T13:00:04.493Z,67.69
2022-09-28T13:01:35.240Z,66.75
2022-09-28T13:03:01.948Z,67.14
2022-09-28T13:04:20.744Z,66.96
2022-09-28T13:05:40.814Z,67.08
2022-09-28T13:06:51.615Z,67.23
2022-09-28T13:08:10.820Z,67.22
2022-09-28T13:09:24.045Z,67.29
2022-09-28T13:10:57.923Z,67.17
2022-09-28T13:12:37.473Z,66.89
2022-09-28T13:13:48.128Z,66.49
2022-09-28T13:15:16.722Z,67.07
2022-09-28T13:16:40.919Z,67.26
2022-09-28T13:17:51.188Z,67.31
2022-09-28T13:18:59.321Z,66.96
2022-09-28T13:20:13.387Z,66.44
2022-09-28T13:21:27.669Z,66.59
2022-09-28T13:22:56.635Z,67.21
2022-09-28T13:24:14.343Z,66.99
2022-09-28T13:25:26.570Z,64.65
2022-09-28T13:26:29.910Z,65.30
2022-09-28T13:27:37.475Z,64.63
2022-09-28T13:28:42.565Z,64.85
2022-09-28T13:29:49.711Z,64.76
2022-09-28T13:30:53.294Z,64.63
2022-09-28T13:31:58.236Z,63.88
2022-09-28T13:33:03.559Z,62.53
2022-09-28T13:34:10.066Z,62.82
2022-09-28T13:35:20.256Z,63.49
2022-09-28T13:36:29.814Z,62.11
2022-09-28T13:37:33.755Z,62.90
2022-09-28T13:38:55.784Z,62.81
2022-09-28T13:39:58.350Z,63.00
2022-09-28T13:41:03.207Z,62.87
2022-09-28T13:42:08.572Z,62.77
2022-09-28T13:43:26.747Z,62.50
2022-09-28T13:45:00.919Z,63.02
2022-09-28T13:46:09.769Z,63.44
2022-09-28T13:47:11.540Z,62.83
2022-09-28T13:48:22.994Z,62.42
2022-09-28T13:49:58.123Z,61.76
2022-09-28T13:51:12.362Z,61.65
2022-09-28T13:53:05.555Z,61.40
2022-09-28T13:54:41.703Z,61.41
2022-09-28T13:55:46.568Z,61.11
2022-09-28T13:56:58.236Z,60.95
2022-09-28T13:58:26.021Z,61.01
2022-09-28T13:59:31.808Z,61.08
2022-09-28T14:00:50.942Z,60.76
2022-09-28T14:02:14.530Z,61.21
2022-09-28T14:03:27.702Z,61.36
2022-09-28T14:04:59.037Z,61.15
2022-09-28T14:06:24.131Z,61.45
2022-09-28T14:07:34.934Z,61.20
2022-09-28T14:08:44.467Z,61.56
2022-09-28T14:10:17.632Z,61.79
2022-09-28T14:11:39.528Z,61.38
2022-09-28T14:12:51.509Z,62.00
2022-09-28T14:14:00.448Z,61.87
2022-09-28T14:15:25.497Z,61.85
2022-09-28T14:16:32.736Z,62.16
2022-09-28T14:17:52.406Z,61.77
2022-09-28T14:19:12.566Z,62.21
2022-09-28T14:20:16.088Z,62.17
2022-09-28T14:21:39.329Z,62.26
2022-09-28T14:23:14.341Z,62.60
2022-09-28T14:24:34.111Z,62.69
2022-09-28T14:25:43.035Z,62.37
2022-09-28T14:26:57.353Z,62.38
2022-09-28T14:28:23.980Z,62.58
2022-09-28T14:29:31.507Z,63.04
2022-09-28T14:30:42.328Z,63.02
2022-09-28T14:31:44.653Z,62.91
2022-09-28T14:32:57.785Z,63.26
2022-09-28T14:34:02.725Z,62.64
2022-09-28T14:35:18.775Z,63.27
2022-09-28T14:36:46.746Z,63.46
2022-09-28T14:38:11.281Z,63.92
2022-09-28T14:39:47.767Z,63.94
2022-09-28T14:41:11.910Z,64.09
2022-09-28T14:42:19.223Z,64.22
2022-09-28T14:43:34.564Z,64.17
2022-09-28T14:45:07.140Z,64.27
2022-09-28T14:46:10.266Z,64.57
2022-09-28T14:47:40.609Z,65.04
2022-09-28T14:48:55.250Z,65.02
2022-09-28T14:50:16.920Z,64.95
2022-09-28T14:51:32.356Z,65.09
2022-09-28T14:52:46.663Z,65.08
2022-09-28T14:53:50.986Z,65.16
2022-09-28T14:54:53.984Z,65.07
2022-09-28T14:55:59.280Z,65.01
2022-09-28T14:57:07.503Z,65.19
2022-09-28T14:58:19.066Z,65.19
2022-09-28T14:59:24.975Z,64.52
2022-09-28T15:00:29.736Z,64.90
2022-09-28T15:01:34.880Z,65.24
2022-09-28T15:02:37.997Z,64.92
2022-09-28T15:03:41.641Z,64.69
2022-09-28T15:04:48.107Z,65.03
2022-09-28T15:05:51.719Z,64.87
2022-09-28T15:06:53.969Z,65.56
2022-09-28T15:07:56.497Z,65.49
2022-09-28T15:08:58.247Z,64.97
2022-09-28T15:10:01.983Z,64.60
2022-09-28T15:11:23.701Z,64.59
2022-09-28T15:12:32.039Z,64.44
2022-09-28T15:13:34.498Z,63.93
2022-09-28T15:14:45.514Z,64.22
2022-09-28T15:15:50.753Z,64.26
2022-09-28T15:16:54.470Z,64.22
2022-09-28T15:18:26.851Z,64.69
2022-09-28T15:19:55.048Z,65.14
2022-09-28T15:20:57.266Z,65.16
2022-09-28T15:21:59.216Z,64.97
2022-09-28T15:23:00.847Z,65.29
2022-09-28T15:24:02.992Z,65.14
2022-09-28T15:25:14.518Z,65.33
2022-09-28T15:26:24.557Z,65.22
2022-09-28T15:27:34.233Z,65.39
2022-09-28T15:28:42.648Z,65.55
2022-09-28T15:29:58.987Z,65.30
2022-09-28T15:31:04.765Z,65.28
2022-09-28T15:32:23.098Z,65.65